Old Hickory Observed Data For Previous 48 Hours

Caption
Day and Hour Reservoir Elevation (behind dam)* Tailwater Elevation (below dam)* Average Hourly Discharge*
11/17/2017 1 AM CST 444.46 394.61 19,800
11/17/2017 2 AM CST 444.51 394.65 19,800
11/17/2017 3 AM CST 444.61 394.71 19,800
11/17/2017 4 AM CST 444.66 394.74 19,800
11/17/2017 5 AM CST 444.70 394.77 19,800
11/17/2017 6 AM CST 444.68 394.74 19,800
11/17/2017 7 AM CST 444.68 394.74 19,800
11/17/2017 8 AM CST 444.58 394.63 19,800
11/17/2017 9 AM CST 444.51 394.54 19,800
11/17/2017 10 AM CST 444.48 394.50 19,800
11/17/2017 11 AM CST 444.48 394.50 19,800
11/17/2017 12 PM CST 444.45 394.50 19,800
11/17/2017 1 PM CST 444.48 394.50 19,800
11/17/2017 2 PM CST 444.52 394.48 19,800
11/17/2017 3 PM CST 444.52 394.48 19,800
11/17/2017 4 PM CST 444.45 394.52 19,800
11/17/2017 5 PM CST 444.43 394.50 19,800
11/17/2017 6 PM CST 444.40 394.50 19,800
11/17/2017 7 PM CST 444.40 394.50 19,800
11/17/2017 8 PM CST 444.31 394.65 20,100
11/17/2017 9 PM CST 444.21 394.63 20,100
11/17/2017 10 PM CST 444.22 394.68 20,100
11/17/2017 11 PM CST 444.26 394.68 20,100
11/18/2017 12 AM CST 444.29 394.67 20,100
11/18/2017 1 AM CST 444.29 394.67 20,100
11/18/2017 2 AM CST - 999.00 - 999.00 -999
11/18/2017 3 AM CST 444.44 392.01 12,600
11/18/2017 4 AM CST 444.50 391.77 12,600
11/18/2017 5 AM CST 444.56 391.50 12,400
11/18/2017 6 AM CST 444.60 391.20 12,400
11/18/2017 7 AM CST 444.60 391.20 12,400
11/18/2017 8 AM CST 444.53 391.03 12,400
11/18/2017 9 AM CST 444.45 392.89 19,200
11/18/2017 10 AM CST 444.34 393.51 19,500
11/18/2017 11 AM CST 444.28 393.59 19,500
11/18/2017 12 PM CST 444.32 394.10 19,800
11/18/2017 1 PM CST 444.32 394.10 19,800
11/18/2017 2 PM CST - 999.00 - 999.00 -999
11/18/2017 3 PM CST 444.34 391.93 12,600
11/18/2017 4 PM CST 444.34 392.00 12,600
11/18/2017 5 PM CST 444.17 392.76 19,200
11/18/2017 6 PM CST 444.22 392.93 19,200
11/18/2017 7 PM CST 444.22 392.93 19,200
11/18/2017 8 PM CST 444.00 393.70 19,500
11/18/2017 9 PM CST 443.95 393.85 19,800
11/18/2017 10 PM CST 443.89 394.06 19,800
11/18/2017 11 PM CST 443.89 394.06 19,800

Elevations are in feet above sea level. Discharges are in cubic feet per second and are reported at the end of the hour.